Terminal Aerodrome Forecast
Issued by NWS

Home | Current Version | Previous Version | Graphics & Text | Print | Product List | Glossary On
Versions: 1 2 3 4 5 6 7 8 9 10 11 12 13 14 15 16 17 18 19
285
FTUS43 KIWX 200330 AAA
TAFSBN
TAF AMD
KSBN 200330Z 2004/2024 00000KT 3SM BR BKN008
     FM200600 00000KT 1/4SM FG VV002
     FM201300 VRB03KT 1SM BR SCT004
     FM201500 17005KT P6SM FEW090=

USA.gov is the U.S. government's official web portal to all federal, state and local government web resources and services.